sensor_id;sensor_type;location;lat;lon;timestamp;temperature;humidity
4755;DHT22;2391;47.212;7.542;2022-10-12T04:07:05;17.70;97.60
4755;DHT22;2391;47.212;7.542;2022-10-12T04:09:31;17.70;97.60
4755;DHT22;2391;47.212;7.542;2022-10-12T04:11:57;17.70;97.60
4755;DHT22;2391;47.212;7.542;2022-10-12T04:14:31;17.80;97.50
4755;DHT22;2391;47.212;7.542;2022-10-12T04:20:16;17.80;97.50
4755;DHT22;2391;47.212;7.542;2022-10-12T04:22:42;17.80;97.60
4755;DHT22;2391;47.212;7.542;2022-10-12T04:25:10;18.00;97.50
4755;DHT22;2391;47.212;7.542;2022-10-12T04:27:36;18.10;97.30
4755;DHT22;2391;47.212;7.542;2022-10-12T04:50:45;19.80;95.40
4755;DHT22;2391;47.212;7.542;2022-10-12T04:53:11;20.10;95.00
4755;DHT22;2391;47.212;7.542;2022-10-12T04:55:39;20.20;94.60
4755;DHT22;2391;47.212;7.542;2022-10-12T04:58:06;20.10;94.60
4755;DHT22;2391;47.212;7.542;2022-10-12T05:00:34;19.80;94.60
4755;DHT22;2391;47.212;7.542;2022-10-12T05:03:11;19.40;95.00
4755;DHT22;2391;47.212;7.542;2022-10-12T05:05:30;19.00;95.40
4755;DHT22;2391;47.212;7.542;2022-10-12T05:07:59;18.60;95.80
4755;DHT22;2391;47.212;7.542;2022-10-12T05:10:29;18.30;96.20
4755;DHT22;2391;47.212;7.542;2022-10-12T05:12:53;18.00;96.80
4755;DHT22;2391;47.212;7.542;2022-10-12T05:15:22;17.70;96.90
4755;DHT22;2391;47.212;7.542;2022-10-12T05:17:50;17.50;97.20
4755;DHT22;2391;47.212;7.542;2022-10-12T05:20:21;17.40;97.60
4755;DHT22;2391;47.212;7.542;2022-10-12T05:22:46;17.20;97.80
4755;DHT22;2391;47.212;7.542;2022-10-12T05:25:14;17.00;98.10
4755;DHT22;2391;47.212;7.542;2022-10-12T05:27:41;16.90;98.20
4755;DHT22;2391;47.212;7.542;2022-10-12T05:30:07;16.90;98.40
4755;DHT22;2391;47.212;7.542;2022-10-12T05:32:39;16.90;98.50
4755;DHT22;2391;47.212;7.542;2022-10-12T05:35:08;16.80;98.60
4755;DHT22;2391;47.212;7.542;2022-10-12T05:37:36;16.80;98.70
4755;DHT22;2391;47.212;7.542;2022-10-12T05:40:03;16.80;98.70
4755;DHT22;2391;47.212;7.542;2022-10-12T05:42:31;16.80;98.80
4755;DHT22;2391;47.212;7.542;2022-10-12T05:44:59;16.80;98.80
4755;DHT22;2391;47.212;7.542;2022-10-12T05:47:25;16.80;98.80
4755;DHT22;2391;47.212;7.542;2022-10-12T05:49:51;16.80;98.80
4755;DHT22;2391;47.212;7.542;2022-10-12T05:52:22;16.80;98.90
4755;DHT22;2391;47.212;7.542;2022-10-12T05:54:49;16.80;98.80
4755;DHT22;2391;47.212;7.542;2022-10-12T05:57:17;16.90;98.90
4755;DHT22;2391;47.212;7.542;2022-10-12T05:59:46;16.90;98.80
4755;DHT22;2391;47.212;7.542;2022-10-12T06:02:14;16.90;98.70
4755;DHT22;2391;47.212;7.542;2022-10-12T06:04:43;17.00;98.80
4755;DHT22;2391;47.212;7.542;2022-10-12T06:07:11;17.00;98.70
4755;DHT22;2391;47.212;7.542;2022-10-12T06:09:40;17.10;98.70
4755;DHT22;2391;47.212;7.542;2022-10-12T06:12:06;17.10;98.70
4755;DHT22;2391;47.212;7.542;2022-10-12T06:14:34;17.10;98.70
4755;DHT22;2391;47.212;7.542;2022-10-12T06:17:00;17.10;98.60
4755;DHT22;2391;47.212;7.542;2022-10-12T06:19:26;17.10;98.60
4755;DHT22;2391;47.212;7.542;2022-10-12T06:21:54;17.10;98.60
4755;DHT22;2391;47.212;7.542;2022-10-12T06:24:24;17.10;98.60
4755;DHT22;2391;47.212;7.542;2022-10-12T06:26:54;17.20;98.60
4755;DHT22;2391;47.212;7.542;2022-10-12T06:29:22;17.20;98.50
4755;DHT22;2391;47.212;7.542;2022-10-12T06:31:51;17.20;98.50
4755;DHT22;2391;47.212;7.542;2022-10-12T06:34:23;17.30;98.70
4755;DHT22;2391;47.212;7.542;2022-10-12T06:36:51;17.30;98.50
4755;DHT22;2391;47.212;7.542;2022-10-12T06:39:23;17.30;98.50
4755;DHT22;2391;47.212;7.542;2022-10-12T06:41:51;17.30;98.50
4755;DHT22;2391;47.212;7.542;2022-10-12T06:44:21;17.30;98.50
4755;DHT22;2391;47.212;7.542;2022-10-12T06:46:51;17.20;98.60
4755;DHT22;2391;47.212;7.542;2022-10-12T06:49:21;17.20;98.60
4755;DHT22;2391;47.212;7.542;2022-10-12T06:51:50;17.20;98.60
4755;DHT22;2391;47.212;7.542;2022-10-12T06:54:18;17.20;98.70
4755;DHT22;2391;47.212;7.542;2022-10-12T06:56:48;17.20;98.60
4755;DHT22;2391;47.212;7.542;2022-10-12T06:59:16;17.20;98.80
4755;DHT22;2391;47.212;7.542;2022-10-12T07:01:49;17.20;98.70
4755;DHT22;2391;47.212;7.542;2022-10-12T07:04:12;17.20;98.70
4755;DHT22;2391;47.212;7.542;2022-10-12T07:06:45;17.10;98.70
4755;DHT22;2391;47.212;7.542;2022-10-12T07:09:16;17.10;98.90
4755;DHT22;2391;47.212;7.542;2022-10-12T07:11:40;17.10;98.90
4755;DHT22;2391;47.212;7.542;2022-10-12T07:14:06;17.00;98.90
4755;DHT22;2391;47.212;7.542;2022-10-12T07:16:34;17.00;99.30
4755;DHT22;2391;47.212;7.542;2022-10-12T07:19:05;17.00;99.00
4755;DHT22;2391;47.212;7.542;2022-10-12T07:21:39;17.10;99.00
4755;DHT22;2391;47.212;7.542;2022-10-12T07:24:18;17.10;99.00
4755;DHT22;2391;47.212;7.542;2022-10-12T07:26:37;17.20;99.00
4755;DHT22;2391;47.212;7.542;2022-10-12T07:29:04;17.20;99.00
4755;DHT22;2391;47.212;7.542;2022-10-12T07:31:36;17.20;99.00
4755;DHT22;2391;47.212;7.542;2022-10-12T07:34:04;17.20;99.00
4755;DHT22;2391;47.212;7.542;2022-10-12T07:36:36;17.20;99.10
4755;DHT22;2391;47.212;7.542;2022-10-12T07:39:03;17.20;99.10
4755;DHT22;2391;47.212;7.542;2022-10-12T07:41:29;17.20;99.10
4755;DHT22;2391;47.212;7.542;2022-10-12T07:44:02;17.20;99.10
4755;DHT22;2391;47.212;7.542;2022-10-12T07:46:27;17.20;99.10
4755;DHT22;2391;47.212;7.542;2022-10-12T07:49:01;17.20;99.10
4755;DHT22;2391;47.212;7.542;2022-10-12T07:51:28;17.10;99.10
4755;DHT22;2391;47.212;7.542;2022-10-12T07:53:56;17.20;99.20
4755;DHT22;2391;47.212;7.542;2022-10-12T07:56:27;17.20;99.20
4755;DHT22;2391;47.212;7.542;2022-10-12T07:58:55;17.20;99.30
4755;DHT22;2391;47.212;7.542;2022-10-12T08:01:28;17.20;99.30
4755;DHT22;2391;47.212;7.542;2022-10-12T08:03:55;17.20;99.30
4755;DHT22;2391;47.212;7.542;2022-10-12T08:06:29;17.30;99.40
4755;DHT22;2391;47.212;7.542;2022-10-12T08:08:56;17.30;99.40
4755;DHT22;2391;47.212;7.542;2022-10-12T08:11:29;17.30;99.40
4755;DHT22;2391;47.212;7.542;2022-10-12T08:13:55;17.20;99.40
4755;DHT22;2391;47.212;7.542;2022-10-12T08:16:21;17.30;99.50
4755;DHT22;2391;47.212;7.542;2022-10-12T08:18:50;17.30;99.50
4755;DHT22;2391;47.212;7.542;2022-10-12T08:21:19;17.30;99.50
4755;DHT22;2391;47.212;7.542;2022-10-12T08:23:49;17.30;99.50
4755;DHT22;2391;47.212;7.542;2022-10-12T08:26:19;17.40;99.70
4755;DHT22;2391;47.212;7.542;2022-10-12T08:28:48;17.40;99.50
4755;DHT22;2391;47.212;7.542;2022-10-12T08:31:17;17.40;99.40
4755;DHT22;2391;47.212;7.542;2022-10-12T08:33:44;17.50;99.30
4755;DHT22;2391;47.212;7.542;2022-10-12T08:36:15;17.50;99.20
4755;DHT22;2391;47.212;7.542;2022-10-12T08:38:42;17.50;99.30
4755;DHT22;2391;47.212;7.542;2022-10-12T08:41:18;17.60;99.40
4755;DHT22;2391;47.212;7.542;2022-10-12T08:46:11;17.50;99.40
4755;DHT22;2391;47.212;7.542;2022-10-12T08:51:23;17.60;99.30
4755;DHT22;2391;47.212;7.542;2022-10-12T08:54:02;17.60;99.20
4755;DHT22;2391;47.212;7.542;2022-10-12T08:56:28;17.50;99.20
4755;DHT22;2391;47.212;7.542;2022-10-12T08:58:55;17.50;99.10
4755;DHT22;2391;47.212;7.542;2022-10-12T09:01:33;17.50;99.30
4755;DHT22;2391;47.212;7.542;2022-10-12T09:07:13;17.60;99.20
4755;DHT22;2391;47.212;7.542;2022-10-12T09:09:43;17.70;99.10
4755;DHT22;2391;47.212;7.542;2022-10-12T09:14:57;17.70;99.30
4755;DHT22;2391;47.212;7.542;2022-10-12T09:17:34;17.80;99.40
4755;DHT22;2391;47.212;7.542;2022-10-12T09:20:22;17.70;99.10
4755;DHT22;2391;47.212;7.542;2022-10-12T09:22:47;17.80;99.30
4755;DHT22;2391;47.212;7.542;2022-10-12T09:25:24;17.80;99.20
4755;DHT22;2391;47.212;7.542;2022-10-12T09:28:15;17.80;99.20
4755;DHT22;2391;47.212;7.542;2022-10-12T09:30:55;17.90;99.20
4755;DHT22;2391;47.212;7.542;2022-10-12T09:33:14;17.90;99.10
4755;DHT22;2391;47.212;7.542;2022-10-12T09:35:45;18.00;99.00
4755;DHT22;2391;47.212;7.542;2022-10-12T09:38:13;17.90;99.00
4755;DHT22;2391;47.212;7.542;2022-10-12T09:40:43;17.80;99.20
4755;DHT22;2391;47.212;7.542;2022-10-12T09:43:15;17.90;99.40
4755;DHT22;2391;47.212;7.542;2022-10-12T09:45:45;18.00;99.50
4755;DHT22;2391;47.212;7.542;2022-10-12T09:48:27;18.00;99.10
4755;DHT22;2391;47.212;7.542;2022-10-12T09:51:03;18.10;99.20
4755;DHT22;2391;47.212;7.542;2022-10-12T09:53:45;18.10;99.20
4755;DHT22;2391;47.212;7.542;2022-10-12T09:56:11;18.20;99.00
4755;DHT22;2391;47.212;7.542;2022-10-12T09:58:54;18.30;99.00
4755;DHT22;2391;47.212;7.542;2022-10-12T10:04:32;18.40;99.00
4755;DHT22;2391;47.212;7.542;2022-10-12T10:09:37;18.50;98.90
4755;DHT22;2391;47.212;7.542;2022-10-12T10:12:25;18.60;98.80
4755;DHT22;2391;47.212;7.542;2022-10-12T10:15:13;18.70;98.60
4755;DHT22;2391;47.212;7.542;2022-10-12T10:17:33;18.60;98.50
4755;DHT22;2391;47.212;7.542;2022-10-12T10:20:02;18.70;98.60
4755;DHT22;2391;47.212;7.542;2022-10-12T10:22:45;18.70;98.60
4755;DHT22;2391;47.212;7.542;2022-10-12T10:25:03;18.60;98.50
4755;DHT22;2391;47.212;7.542;2022-10-12T10:27:39;18.60;98.50
4755;DHT22;2391;47.212;7.542;2022-10-12T10:30:24;18.60;98.20
4755;DHT22;2391;47.212;7.542;2022-10-12T10:33:06;18.70;98.20
4755;DHT22;2391;47.212;7.542;2022-10-12T10:35:27;18.70;98.00
4755;DHT22;2391;47.212;7.542;2022-10-12T10:37:56;18.80;98.10
4755;DHT22;2391;47.212;7.542;2022-10-12T10:40:48;18.80;98.10
4755;DHT22;2391;47.212;7.542;2022-10-12T10:46:02;18.90;97.80
4755;DHT22;2391;47.212;7.542;2022-10-12T10:48:29;18.90;97.80
4755;DHT22;2391;47.212;7.542;2022-10-12T10:51:03;18.90;97.70
4755;DHT22;2391;47.212;7.542;2022-10-12T10:53:49;18.90;98.10
4755;DHT22;2391;47.212;7.542;2022-10-12T10:56:35;18.90;97.90
4755;DHT22;2391;47.212;7.542;2022-10-12T10:59:14;18.80;97.60
4755;DHT22;2391;47.212;7.542;2022-10-12T11:07:23;18.50;97.60
4755;DHT22;2391;47.212;7.542;2022-10-12T11:12:31;18.60;97.60
4755;DHT22;2391;47.212;7.542;2022-10-12T11:15:05;18.70;97.30
4755;DHT22;2391;47.212;7.542;2022-10-12T11:17:45;18.70;97.20
4755;DHT22;2391;47.212;7.542;2022-10-12T11:23:17;18.80;96.70
4755;DHT22;2391;47.212;7.542;2022-10-12T11:28:47;19.00;96.90
4755;DHT22;2391;47.212;7.542;2022-10-12T11:31:05;19.00;97.00
4755;DHT22;2391;47.212;7.542;2022-10-12T11:33:40;19.00;97.10
4755;DHT22;2391;47.212;7.542;2022-10-12T11:36:16;19.00;96.90
4755;DHT22;2391;47.212;7.542;2022-10-12T11:41:40;19.10;97.20
4755;DHT22;2391;47.212;7.542;2022-10-12T11:47:01;19.20;97.00
4755;DHT22;2391;47.212;7.542;2022-10-12T11:52:07;19.20;97.60
4755;DHT22;2391;47.212;7.542;2022-10-12T11:57:30;19.30;96.80
4755;DHT22;2391;47.212;7.542;2022-10-12T12:00:06;19.40;96.60
4755;DHT22;2391;47.212;7.542;2022-10-12T12:02:48;19.40;96.70
4755;DHT22;2391;47.212;7.542;2022-10-12T12:05:16;19.40;96.50
4755;DHT22;2391;47.212;7.542;2022-10-12T12:13:21;19.50;96.40
4755;DHT22;2391;47.212;7.542;2022-10-12T12:21:08;19.40;95.80
4755;DHT22;2391;47.212;7.542;2022-10-12T12:23:42;19.40;96.10
4755;DHT22;2391;47.212;7.542;2022-10-12T12:26:29;19.40;96.30
4755;DHT22;2391;47.212;7.542;2022-10-12T12:29:11;19.40;96.60
4755;DHT22;2391;47.212;7.542;2022-10-12T12:31:45;19.40;96.50
4755;DHT22;2391;47.212;7.542;2022-10-12T12:37:26;19.40;96.30
4755;DHT22;2391;47.212;7.542;2022-10-12T12:43:04;19.40;96.70
4755;DHT22;2391;47.212;7.542;2022-10-12T12:50:50;19.60;96.30
4755;DHT22;2391;47.212;7.542;2022-10-12T12:53:34;19.60;96.70
4755;DHT22;2391;47.212;7.542;2022-10-12T13:13:36;19.80;96.00
4755;DHT22;2391;47.212;7.542;2022-10-12T13:19:14;19.90;96.10
4755;DHT22;2391;47.212;7.542;2022-10-12T13:21:51;20.00;95.90
4755;DHT22;2391;47.212;7.542;2022-10-12T13:30:09;20.00;95.80
4755;DHT22;2391;47.212;7.542;2022-10-12T13:36:18;20.00;96.20
4755;DHT22;2391;47.212;7.542;2022-10-12T13:38:52;20.00;96.20
4755;DHT22;2391;47.212;7.542;2022-10-12T13:41:19;20.00;96.00
4755;DHT22;2391;47.212;7.542;2022-10-12T13:44:12;20.10;95.70
4755;DHT22;2391;47.212;7.542;2022-10-12T13:46:43;20.10;95.50
4755;DHT22;2391;47.212;7.542;2022-10-12T13:49:27;20.20;95.80
4755;DHT22;2391;47.212;7.542;2022-10-12T13:52:02;20.10;95.40
4755;DHT22;2391;47.212;7.542;2022-10-12T13:54:45;20.10;95.50
4755;DHT22;2391;47.212;7.542;2022-10-12T13:57:48;20.10;95.50
4755;DHT22;2391;47.212;7.542;2022-10-12T14:03:03;20.10;95.30
4755;DHT22;2391;47.212;7.542;2022-10-12T14:05:41;20.10;95.40
4755;DHT22;2391;47.212;7.542;2022-10-12T14:08:19;20.10;95.50
4755;DHT22;2391;47.212;7.542;2022-10-12T14:10:55;20.10;95.50
4755;DHT22;2391;47.212;7.542;2022-10-12T14:13:25;20.10;95.50
4755;DHT22;2391;47.212;7.542;2022-10-12T14:16:03;20.10;95.40
4755;DHT22;2391;47.212;7.542;2022-10-12T14:18:44;20.10;95.30
4755;DHT22;2391;47.212;7.542;2022-10-12T14:24:07;20.20;95.40
4755;DHT22;2391;47.212;7.542;2022-10-12T14:26:43;20.20;95.20
4755;DHT22;2391;47.212;7.542;2022-10-12T14:29:46;20.10;95.30
4755;DHT22;2391;47.212;7.542;2022-10-12T14:37:50;20.00;95.80
4755;DHT22;2391;47.212;7.542;2022-10-12T14:40:43;20.10;95.60
4755;DHT22;2391;47.212;7.542;2022-10-12T14:48:32;19.90;95.70
4755;DHT22;2391;47.212;7.542;2022-10-12T14:51:00;19.90;95.70
4755;DHT22;2391;47.212;7.542;2022-10-12T14:56:03;19.80;95.90
4755;DHT22;2391;47.212;7.542;2022-10-12T14:58:35;19.70;95.70
4755;DHT22;2391;47.212;7.542;2022-10-12T15:01:15;19.50;96.00
4755;DHT22;2391;47.212;7.542;2022-10-12T15:03:40;19.30;96.20
4755;DHT22;2391;47.212;7.542;2022-10-12T15:06:21;19.20;96.50
4755;DHT22;2391;47.212;7.542;2022-10-12T15:08:56;19.10;96.70
4755;DHT22;2391;47.212;7.542;2022-10-12T15:11:33;19.10;97.10
4755;DHT22;2391;47.212;7.542;2022-10-12T15:14:07;19.10;97.00
4755;DHT22;2391;47.212;7.542;2022-10-12T15:16:57;19.30;96.90
4755;DHT22;2391;47.212;7.542;2022-10-12T15:19:24;19.40;96.80
4755;DHT22;2391;47.212;7.542;2022-10-12T15:22:04;19.60;96.70
4755;DHT22;2391;47.212;7.542;2022-10-12T15:24:42;19.70;96.80
4755;DHT22;2391;47.212;7.542;2022-10-12T15:27:09;19.80;96.40
4755;DHT22;2391;47.212;7.542;2022-10-12T15:32:24;19.90;96.10
4755;DHT22;2391;47.212;7.542;2022-10-12T15:34:55;19.60;96.10
4755;DHT22;2391;47.212;7.542;2022-10-12T15:40:14;19.60;96.60
4755;DHT22;2391;47.212;7.542;2022-10-12T15:42:41;19.60;96.30
4755;DHT22;2391;47.212;7.542;2022-10-12T15:48:02;19.90;96.20
4755;DHT22;2391;47.212;7.542;2022-10-12T15:53:30;20.00;95.90
4755;DHT22;2391;47.212;7.542;2022-10-12T15:58:44;20.10;95.70
4755;DHT22;2391;47.212;7.542;2022-10-12T16:01:23;20.20;95.80
4755;DHT22;2391;47.212;7.542;2022-10-12T16:04:15;20.20;95.70
4755;DHT22;2391;47.212;7.542;2022-10-12T16:06:47;20.30;95.90
4755;DHT22;2391;47.212;7.542;2022-10-12T16:09:12;20.30;95.80
4755;DHT22;2391;47.212;7.542;2022-10-12T16:11:38;20.30;96.00
4755;DHT22;2391;47.212;7.542;2022-10-12T16:24:09;21.20;95.70
4755;DHT22;2391;47.212;7.542;2022-10-12T16:32:03;22.00;94.20
4755;DHT22;2391;47.212;7.542;2022-10-12T16:34:30;21.90;93.50
4755;DHT22;2391;47.212;7.542;2022-10-12T16:36:56;21.80;93.60
4755;DHT22;2391;47.212;7.542;2022-10-12T16:39:22;21.60;93.80
4755;DHT22;2391;47.212;7.542;2022-10-12T16:41:47;21.40;94.00
4755;DHT22;2391;47.212;7.542;2022-10-12T16:44:13;21.30;94.20
4755;DHT22;2391;47.212;7.542;2022-10-12T16:46:39;21.10;94.40
4755;DHT22;2391;47.212;7.542;2022-10-12T16:49:05;21.00;94.60
4755;DHT22;2391;47.212;7.542;2022-10-12T16:51:31;20.90;94.80
4755;DHT22;2391;47.212;7.542;2022-10-12T16:53:56;20.70;94.90
4755;DHT22;2391;47.212;7.542;2022-10-12T16:56:22;20.70;95.10
4755;DHT22;2391;47.212;7.542;2022-10-12T16:58:48;20.60;95.50
4755;DHT22;2391;47.212;7.542;2022-10-12T17:01:14;20.50;95.30
4755;DHT22;2391;47.212;7.542;2022-10-12T17:03:40;20.40;95.40
4755;DHT22;2391;47.212;7.542;2022-10-12T17:06:06;20.40;95.60
4755;DHT22;2391;47.212;7.542;2022-10-12T17:08:33;20.30;95.70
4755;DHT22;2391;47.212;7.542;2022-10-12T17:11:08;20.20;95.70
4755;DHT22;2391;47.212;7.542;2022-10-12T17:13:36;20.20;95.80
4755;DHT22;2391;47.212;7.542;2022-10-12T17:16:03;20.10;95.90
4755;DHT22;2391;47.212;7.542;2022-10-12T17:18:31;20.00;95.90
4755;DHT22;2391;47.212;7.542;2022-10-12T17:20:57;20.00;96.00
4755;DHT22;2391;47.212;7.542;2022-10-12T17:23:23;19.90;96.00
4755;DHT22;2391;47.212;7.542;2022-10-12T17:25:49;19.80;96.10
4755;DHT22;2391;47.212;7.542;2022-10-12T17:28:17;19.80;96.10
4755;DHT22;2391;47.212;7.542;2022-10-12T17:30:43;19.80;96.20
4755;DHT22;2391;47.212;7.542;2022-10-12T17:33:09;19.70;96.20
4755;DHT22;2391;47.212;7.542;2022-10-12T17:35:38;19.70;96.20
4755;DHT22;2391;47.212;7.542;2022-10-12T17:38:05;19.60;96.20
4755;DHT22;2391;47.212;7.542;2022-10-12T17:40:31;19.60;96.20
4755;DHT22;2391;47.212;7.542;2022-10-12T17:42:57;19.50;96.10
4755;DHT22;2391;47.212;7.542;2022-10-12T17:45:23;19.50;96.20
4755;DHT22;2391;47.212;7.542;2022-10-12T17:47:49;19.40;96.20
4755;DHT22;2391;47.212;7.542;2022-10-12T17:50:14;19.30;96.30
4755;DHT22;2391;47.212;7.542;2022-10-12T17:52:40;19.30;96.30
4755;DHT22;2391;47.212;7.542;2022-10-12T17:55:06;19.30;96.30
4755;DHT22;2391;47.212;7.542;2022-10-12T17:57:32;19.30;96.20
4755;DHT22;2391;47.212;7.542;2022-10-12T17:59:58;19.30;96.20
4755;DHT22;2391;47.212;7.542;2022-10-12T18:02:24;19.20;96.20
4755;DHT22;2391;47.212;7.542;2022-10-12T18:04:50;19.20;96.20
4755;DHT22;2391;47.212;7.542;2022-10-12T18:07:16;19.20;96.20
4755;DHT22;2391;47.212;7.542;2022-10-12T18:09:42;19.10;96.20
4755;DHT22;2391;47.212;7.542;2022-10-12T18:12:08;19.10;96.20
4755;DHT22;2391;47.212;7.542;2022-10-12T18:14:34;19.10;96.20
4755;DHT22;2391;47.212;7.542;2022-10-12T18:16:59;19.00;96.20
4755;DHT22;2391;47.212;7.542;2022-10-12T18:19:25;19.00;96.30
4755;DHT22;2391;47.212;7.542;2022-10-12T18:21:51;19.00;96.30
4755;DHT22;2391;47.212;7.542;2022-10-12T18:24:17;19.00;96.30
4755;DHT22;2391;47.212;7.542;2022-10-12T18:26:46;18.90;96.20
4755;DHT22;2391;47.212;7.542;2022-10-12T18:29:12;18.90;96.40
4755;DHT22;2391;47.212;7.542;2022-10-12T18:31:38;18.80;96.40
4755;DHT22;2391;47.212;7.542;2022-10-12T18:34:04;18.80;96.70
4755;DHT22;2391;47.212;7.542;2022-10-12T18:36:30;18.80;96.40
4755;DHT22;2391;47.212;7.542;2022-10-12T18:38:58;18.80;96.30
4755;DHT22;2391;47.212;7.542;2022-10-12T18:41:24;18.80;96.30
4755;DHT22;2391;47.212;7.542;2022-10-12T18:43:56;18.70;96.30
4755;DHT22;2391;47.212;7.542;2022-10-12T18:46:23;18.70;96.30
4755;DHT22;2391;47.212;7.542;2022-10-12T18:48:50;18.60;96.30
4755;DHT22;2391;47.212;7.542;2022-10-12T18:51:25;18.60;96.10
4755;DHT22;2391;47.212;7.542;2022-10-12T18:53:51;18.50;96.30
4755;DHT22;2391;47.212;7.542;2022-10-12T18:56:18;18.50;96.30
4755;DHT22;2391;47.212;7.542;2022-10-12T18:58:44;18.50;96.40
4755;DHT22;2391;47.212;7.542;2022-10-12T19:01:12;18.50;96.30
4755;DHT22;2391;47.212;7.542;2022-10-12T19:03:39;18.50;96.30
4755;DHT22;2391;47.212;7.542;2022-10-12T19:06:13;18.40;96.30
4755;DHT22;2391;47.212;7.542;2022-10-12T19:08:40;18.40;96.40
4755;DHT22;2391;47.212;7.542;2022-10-12T19:11:08;18.40;96.40
4755;DHT22;2391;47.212;7.542;2022-10-12T19:13:36;18.40;96.30
4755;DHT22;2391;47.212;7.542;2022-10-12T19:16:08;18.40;96.30
4755;DHT22;2391;47.212;7.542;2022-10-12T19:18:35;18.40;96.40
4755;DHT22;2391;47.212;7.542;2022-10-12T19:21:06;18.40;96.40
4755;DHT22;2391;47.212;7.542;2022-10-12T19:23:32;18.30;96.30
4755;DHT22;2391;47.212;7.542;2022-10-12T19:26:07;18.30;96.40
4755;DHT22;2391;47.212;7.542;2022-10-12T19:28:33;18.30;96.60
4755;DHT22;2391;47.212;7.542;2022-10-12T19:30:59;18.20;96.50
4755;DHT22;2391;47.212;7.542;2022-10-12T19:33:27;18.20;96.50
4755;DHT22;2391;47.212;7.542;2022-10-12T19:35:54;18.20;96.60
4755;DHT22;2391;47.212;7.542;2022-10-12T19:38:20;18.20;96.60
4755;DHT22;2391;47.212;7.542;2022-10-12T19:40:48;18.20;96.60
4755;DHT22;2391;47.212;7.542;2022-10-12T19:43:14;18.20;96.60
4755;DHT22;2391;47.212;7.542;2022-10-12T19:45:40;18.20;96.50
4755;DHT22;2391;47.212;7.542;2022-10-12T19:48:07;18.10;96.50
4755;DHT22;2391;47.212;7.542;2022-10-12T19:50:34;18.10;96.50
4755;DHT22;2391;47.212;7.542;2022-10-12T19:53:00;18.10;96.60
4755;DHT22;2391;47.212;7.542;2022-10-12T19:55:26;18.10;96.60
4755;DHT22;2391;47.212;7.542;2022-10-12T19:57:52;18.10;96.50
4755;DHT22;2391;47.212;7.542;2022-10-12T20:00:18;18.10;96.50
4755;DHT22;2391;47.212;7.542;2022-10-12T20:02:44;18.10;96.40
4755;DHT22;2391;47.212;7.542;2022-10-12T20:05:10;18.10;96.30
4755;DHT22;2391;47.212;7.542;2022-10-12T20:07:37;18.00;96.40
4755;DHT22;2391;47.212;7.542;2022-10-12T20:10:05;18.00;96.40
4755;DHT22;2391;47.212;7.542;2022-10-12T20:12:32;18.00;96.30
4755;DHT22;2391;47.212;7.542;2022-10-12T20:14:58;18.00;96.30
4755;DHT22;2391;47.212;7.542;2022-10-12T20:17:24;18.00;96.30
4755;DHT22;2391;47.212;7.542;2022-10-12T20:19:50;18.00;96.30
4755;DHT22;2391;47.212;7.542;2022-10-12T20:22:17;18.00;96.30
4755;DHT22;2391;47.212;7.542;2022-10-12T20:24:43;17.90;96.20
4755;DHT22;2391;47.212;7.542;2022-10-12T20:27:09;17.90;96.20
4755;DHT22;2391;47.212;7.542;2022-10-12T20:29:35;17.80;96.20
4755;DHT22;2391;47.212;7.542;2022-10-12T20:32:01;17.80;96.20
4755;DHT22;2391;47.212;7.542;2022-10-12T20:34:27;17.70;96.20
4755;DHT22;2391;47.212;7.542;2022-10-12T20:36:53;17.70;96.20
4755;DHT22;2391;47.212;7.542;2022-10-12T20:39:19;17.70;96.20
4755;DHT22;2391;47.212;7.542;2022-10-12T20:41:45;17.60;96.20
4755;DHT22;2391;47.212;7.542;2022-10-12T20:44:11;17.60;96.20
4755;DHT22;2391;47.212;7.542;2022-10-12T20:46:37;17.60;96.30
4755;DHT22;2391;47.212;7.542;2022-10-12T20:49:03;17.60;96.30
4755;DHT22;2391;47.212;7.542;2022-10-12T20:51:32;17.60;96.20
4755;DHT22;2391;47.212;7.542;2022-10-12T20:53:59;17.60;96.30
4755;DHT22;2391;47.212;7.542;2022-10-12T20:56:27;17.60;96.20
4755;DHT22;2391;47.212;7.542;2022-10-12T20:58:53;17.50;96.10
4755;DHT22;2391;47.212;7.542;2022-10-12T21:01:22;17.50;96.10
4755;DHT22;2391;47.212;7.542;2022-10-12T21:03:51;17.50;96.20
4755;DHT22;2391;47.212;7.542;2022-10-12T21:06:17;17.50;96.00
4755;DHT22;2391;47.212;7.542;2022-10-12T21:08:50;17.40;96.20
4755;DHT22;2391;47.212;7.542;2022-10-12T21:11:16;17.40;96.20
4755;DHT22;2391;47.212;7.542;2022-10-12T21:13:42;17.30;96.10
4755;DHT22;2391;47.212;7.542;2022-10-12T21:16:11;17.20;96.20
4755;DHT22;2391;47.212;7.542;2022-10-12T21:18:39;17.20;96.30
4755;DHT22;2391;47.212;7.542;2022-10-12T21:21:11;17.20;96.30
4755;DHT22;2391;47.212;7.542;2022-10-12T21:23:36;17.20;96.20
4755;DHT22;2391;47.212;7.542;2022-10-12T21:28:37;17.20;96.20
4755;DHT22;2391;47.212;7.542;2022-10-12T21:31:03;17.20;96.20
4755;DHT22;2391;47.212;7.542;2022-10-12T21:33:29;17.20;96.30
4755;DHT22;2391;47.212;7.542;2022-10-12T21:38:34;17.10;96.30
4755;DHT22;2391;47.212;7.542;2022-10-12T21:41:00;17.00;96.30
4755;DHT22;2391;47.212;7.542;2022-10-12T21:43:26;17.00;96.30
4755;DHT22;2391;47.212;7.542;2022-10-12T21:45:52;17.00;96.30
4755;DHT22;2391;47.212;7.542;2022-10-12T21:48:18;17.00;96.30
4755;DHT22;2391;47.212;7.542;2022-10-12T21:50:44;17.00;96.40
4755;DHT22;2391;47.212;7.542;2022-10-12T21:53:13;17.00;96.40
4755;DHT22;2391;47.212;7.542;2022-10-12T21:55:39;17.00;96.40
4755;DHT22;2391;47.212;7.542;2022-10-12T21:58:05;17.00;96.40
4755;DHT22;2391;47.212;7.542;2022-10-12T22:00:30;17.00;96.30
4755;DHT22;2391;47.212;7.542;2022-10-12T22:02:56;17.00;96.30
4755;DHT22;2391;47.212;7.542;2022-10-12T22:05:22;17.00;96.40
4755;DHT22;2391;47.212;7.542;2022-10-12T22:07:48;17.00;96.30
4755;DHT22;2391;47.212;7.542;2022-10-12T22:10:14;17.00;96.30
4755;DHT22;2391;47.212;7.542;2022-10-12T22:12:40;17.00;96.30
4755;DHT22;2391;47.212;7.542;2022-10-12T22:15:07;16.90;96.20
4755;DHT22;2391;47.212;7.542;2022-10-12T22:17:33;16.90;96.30
4755;DHT22;2391;47.212;7.542;2022-10-12T22:19:59;16.80;96.20
4755;DHT22;2391;47.212;7.542;2022-10-12T22:22:26;16.80;96.30
4755;DHT22;2391;47.212;7.542;2022-10-12T22:24:51;16.80;96.30
4755;DHT22;2391;47.212;7.542;2022-10-12T22:27:17;16.80;96.40
4755;DHT22;2391;47.212;7.542;2022-10-12T22:29:43;16.80;96.40
4755;DHT22;2391;47.212;7.542;2022-10-12T22:32:09;16.80;96.50
4755;DHT22;2391;47.212;7.542;2022-10-12T22:34:35;16.80;96.40
4755;DHT22;2391;47.212;7.542;2022-10-12T22:37:01;16.80;96.40
4755;DHT22;2391;47.212;7.542;2022-10-12T22:39:27;16.80;96.40
4755;DHT22;2391;47.212;7.542;2022-10-12T22:41:53;16.80;96.50
4755;DHT22;2391;47.212;7.542;2022-10-12T22:44:19;16.80;96.50
4755;DHT22;2391;47.212;7.542;2022-10-12T22:46:45;16.80;96.60
4755;DHT22;2391;47.212;7.542;2022-10-12T22:49:11;16.80;96.60
4755;DHT22;2391;47.212;7.542;2022-10-12T22:51:37;16.80;96.60
4755;DHT22;2391;47.212;7.542;2022-10-12T22:54:04;16.80;96.70
4755;DHT22;2391;47.212;7.542;2022-10-12T22:56:31;16.80;96.80
4755;DHT22;2391;47.212;7.542;2022-10-12T22:58:59;16.80;96.70
4755;DHT22;2391;47.212;7.542;2022-10-12T23:01:26;16.80;96.80
4755;DHT22;2391;47.212;7.542;2022-10-12T23:03:53;16.80;96.90
4755;DHT22;2391;47.212;7.542;2022-10-12T23:06:20;16.80;96.90
4755;DHT22;2391;47.212;7.542;2022-10-12T23:08:46;16.80;96.90
4755;DHT22;2391;47.212;7.542;2022-10-12T23:11:15;16.80;97.00
4755;DHT22;2391;47.212;7.542;2022-10-12T23:13:42;16.80;97.10
4755;DHT22;2391;47.212;7.542;2022-10-12T23:16:13;16.80;97.10
4755;DHT22;2391;47.212;7.542;2022-10-12T23:18:40;16.80;97.10